createdAt,value
2019-05-21T00:00:00.302Z,81.04
2019-05-21T00:01:05.350Z,81.02
2019-05-21T00:02:11.183Z,81.04
2019-05-21T00:03:16.283Z,81.07
2019-05-21T00:04:28.286Z,81.10
2019-05-21T00:05:28.908Z,81.17
2019-05-21T00:06:34.803Z,81.08
2019-05-21T00:07:40.183Z,80.97
2019-05-21T00:08:45.791Z,80.93
2019-05-21T00:09:50.782Z,80.86
2019-05-21T00:10:56.818Z,80.96
2019-05-21T00:12:02.060Z,81.09
2019-05-21T00:13:07.725Z,81.19
2019-05-21T00:14:12.687Z,81.01
2019-05-21T00:15:18.535Z,80.98
2019-05-21T00:16:23.513Z,81.01
2019-05-21T00:17:29.417Z,81.13
2019-05-21T00:18:34.898Z,81.15
2019-05-21T00:19:41.026Z,81.21
2019-05-21T00:20:46.121Z,81.33
2019-05-21T00:21:51.725Z,81.39
2019-05-21T00:22:57.084Z,81.41
2019-05-21T00:24:02.574Z,81.46
2019-05-21T00:25:07.705Z,81.51
2019-05-21T00:26:13.287Z,81.49
2019-05-21T00:27:18.323Z,81.54
2019-05-21T00:28:40.732Z,81.56
2019-05-21T00:30:21.340Z,81.54
2019-05-21T00:32:02.050Z,81.59
2019-05-21T00:33:42.982Z,81.53
2019-05-21T00:35:25.022Z,81.53
2019-05-21T00:37:07.394Z,81.57
2019-05-21T00:38:51.647Z,81.55
2019-05-21T00:40:30.125Z,81.59
2019-05-21T00:42:05.405Z,81.73
2019-05-21T00:43:11.214Z,81.70
2019-05-21T00:44:16.998Z,81.75
2019-05-21T00:45:22.147Z,81.87
2019-05-21T00:46:27.787Z,81.88
2019-05-21T00:47:32.825Z,81.98
2019-05-21T00:48:38.519Z,81.95
2019-05-21T00:49:43.671Z,81.82
2019-05-21T00:50:49.787Z,81.83
2019-05-21T00:52:07.084Z,81.94
2019-05-21T00:53:02.591Z,81.99
2019-05-21T00:54:07.608Z,81.90
2019-05-21T00:55:13.195Z,81.96
2019-05-21T00:56:18.226Z,82.14
2019-05-21T00:57:24.005Z,82.24
2019-05-21T00:58:29.017Z,82.24
2019-05-21T00:59:34.721Z,82.13
2019-05-21T01:00:39.969Z,82.00
2019-05-21T01:01:45.686Z,81.95
2019-05-21T01:02:50.686Z,81.94
2019-05-21T01:03:56.543Z,82.02
2019-05-21T01:05:01.844Z,82.09
2019-05-21T01:06:08.052Z,82.11
2019-05-21T01:07:13.329Z,82.14
2019-05-21T01:08:19.570Z,82.20
2019-05-21T01:09:24.671Z,82.24
2019-05-21T01:10:30.357Z,82.29
2019-05-21T01:11:35.397Z,82.31
2019-05-21T01:12:41.043Z,82.35
2019-05-21T01:13:46.460Z,82.26
2019-05-21T01:14:52.342Z,82.32
2019-05-21T01:15:57.656Z,82.26
2019-05-21T01:17:03.239Z,82.21
2019-05-21T01:18:08.525Z,82.26
2019-05-21T01:19:14.118Z,82.19
2019-05-21T01:20:19.341Z,82.19
2019-05-21T01:21:24.903Z,82.20
2019-05-21T01:22:30.138Z,82.29
2019-05-21T01:23:35.723Z,82.24
2019-05-21T01:24:41.039Z,82.27
2019-05-21T01:25:46.697Z,82.33
2019-05-21T01:26:51.717Z,82.37
2019-05-21T01:27:57.253Z,82.48
2019-05-21T01:29:02.419Z,82.23
2019-05-21T01:30:08.224Z,82.40
2019-05-21T01:31:13.240Z,82.43
2019-05-21T01:32:19.097Z,82.56
2019-05-21T01:33:24.062Z,82.56
2019-05-21T01:34:29.968Z,82.51
2019-05-21T01:35:34.937Z,82.39
2019-05-21T01:36:40.476Z,82.40
2019-05-21T01:37:45.451Z,82.38
2019-05-21T01:38:51.122Z,82.49
2019-05-21T01:39:56.262Z,82.61
2019-05-21T01:41:01.764Z,82.53
2019-05-21T01:42:06.773Z,82.43
2019-05-21T01:43:12.357Z,82.47
2019-05-21T01:44:17.484Z,82.66
2019-05-21T01:45:22.997Z,82.74
2019-05-21T01:46:28.017Z,82.82
2019-05-21T01:47:33.544Z,82.75
2019-05-21T01:48:38.844Z,82.82
2019-05-21T01:49:44.390Z,82.94
2019-05-21T01:50:49.429Z,82.87
2019-05-21T01:51:55.623Z,82.94
2019-05-21T01:53:01.605Z,82.87
2019-05-21T01:54:07.205Z,82.86
2019-05-21T01:55:12.561Z,82.87
2019-05-21T01:56:18.090Z,82.81
2019-05-21T01:57:23.033Z,82.85
2019-05-21T01:58:28.898Z,82.87
2019-05-21T01:59:34.301Z,82.92
2019-05-21T02:00:39.977Z,82.85
2019-05-21T02:01:45.269Z,82.78
2019-05-21T02:02:51.100Z,82.84
2019-05-21T02:03:56.238Z,82.64
2019-05-21T02:05:02.212Z,82.71
2019-05-21T02:06:07.249Z,82.76
2019-05-21T02:07:13.148Z,82.80
2019-05-21T02:08:18.223Z,82.91
2019-05-21T02:09:23.847Z,83.12
2019-05-21T02:10:28.959Z,83.10
2019-05-21T02:11:34.569Z,82.99
2019-05-21T02:12:39.721Z,82.90
2019-05-21T02:13:45.292Z,82.83
2019-05-21T02:14:50.735Z,82.83
2019-05-21T02:15:56.958Z,82.99
2019-05-21T02:17:01.967Z,83.02
2019-05-21T02:18:07.583Z,83.02
2019-05-21T02:19:12.708Z,82.81
2019-05-21T02:20:18.345Z,82.79
2019-05-21T02:21:23.395Z,82.72
2019-05-21T02:22:29.307Z,82.84
2019-05-21T02:23:34.713Z,83.00
2019-05-21T02:24:40.275Z,83.11
2019-05-21T02:25:45.321Z,83.12
2019-05-21T02:26:50.830Z,83.11
2019-05-21T02:27:56.110Z,83.22
2019-05-21T02:29:02.110Z,83.29
2019-05-21T02:30:09.822Z,83.17
2019-05-21T02:31:15.970Z,83.23
2019-05-21T02:32:21.038Z,83.35
2019-05-21T02:33:26.630Z,83.30
2019-05-21T02:34:31.838Z,83.33
2019-05-21T02:35:52.780Z,83.46
2019-05-21T02:36:44.450Z,83.44
2019-05-21T02:37:49.987Z,83.51
2019-05-21T02:38:55.075Z,83.53
2019-05-21T02:40:02.297Z,83.52
2019-05-21T02:41:07.770Z,83.41
2019-05-21T02:42:13.527Z,83.40
2019-05-21T02:43:18.884Z,83.55
2019-05-21T02:44:24.694Z,83.54
2019-05-21T02:45:29.784Z,83.60
2019-05-21T02:46:35.368Z,83.71
2019-05-21T02:47:40.451Z,83.65
2019-05-21T02:48:46.068Z,83.65
2019-05-21T02:49:51.084Z,83.63
2019-05-21T02:50:56.670Z,83.67
2019-05-21T02:52:01.775Z,83.70
2019-05-21T02:53:07.325Z,83.73
2019-05-21T02:54:12.580Z,83.77
2019-05-21T02:55:18.501Z,83.58
2019-05-21T02:56:24.146Z,83.60
2019-05-21T02:57:48.524Z,83.48
2019-05-21T02:58:53.537Z,83.39
2019-05-21T03:00:00.202Z,83.35
2019-05-21T03:01:27.503Z,83.26
2019-05-21T03:02:37.803Z,83.34
2019-05-21T03:03:43.495Z,83.45
2019-05-21T03:04:48.637Z,83.63
2019-05-21T03:06:12.525Z,83.77
2019-05-21T03:07:19.594Z,83.72
2019-05-21T03:08:25.245Z,83.78
2019-05-21T03:09:30.348Z,83.71
2019-05-21T03:10:35.928Z,83.59
2019-05-21T03:11:41.046Z,83.50
2019-05-21T03:12:49.545Z,83.56
2019-05-21T03:13:54.671Z,83.61
2019-05-21T03:15:00.315Z,83.54
2019-05-21T03:16:05.435Z,83.57
2019-05-21T03:17:11.098Z,83.61
2019-05-21T03:18:16.125Z,83.54
2019-05-21T03:19:21.820Z,83.50
2019-05-21T03:20:26.971Z,83.44
2019-05-21T03:21:32.681Z,83.36
2019-05-21T03:22:37.757Z,83.58
2019-05-21T03:23:43.305Z,83.58
2019-05-21T03:24:48.316Z,83.33
2019-05-21T03:25:53.999Z,83.36
2019-05-21T03:26:59.277Z,83.45
2019-05-21T03:28:04.932Z,83.41
2019-05-21T03:29:09.980Z,83.50
2019-05-21T03:30:16.171Z,83.47
2019-05-21T03:31:21.314Z,83.42
2019-05-21T03:32:27.194Z,83.41
2019-05-21T03:33:32.233Z,83.39
2019-05-21T03:34:37.940Z,83.45
2019-05-21T03:35:43.115Z,83.54
2019-05-21T03:36:48.947Z,83.54
2019-05-21T03:37:53.939Z,83.60
2019-05-21T03:38:59.793Z,83.66
2019-05-21T03:40:05.534Z,83.76
2019-05-21T03:41:11.415Z,83.69
2019-05-21T03:42:16.567Z,83.78
2019-05-21T03:43:22.490Z,83.85
2019-05-21T03:44:27.625Z,83.75
2019-05-21T03:45:33.538Z,83.76
2019-05-21T03:46:38.699Z,83.86
2019-05-21T03:47:44.551Z,84.09
2019-05-21T03:48:49.582Z,84.23
2019-05-21T03:49:55.366Z,84.27
2019-05-21T03:51:00.307Z,84.41
2019-05-21T03:52:05.982Z,84.72
2019-05-21T03:53:11.186Z,84.84
2019-05-21T03:54:16.967Z,85.05
2019-05-21T03:55:22.111Z,85.13
2019-05-21T03:56:27.719Z,85.27
2019-05-21T03:57:32.871Z,85.47
2019-05-21T03:58:38.791Z,85.79
2019-05-21T03:59:44.471Z,86.01
2019-05-21T04:00:50.625Z,86.10
2019-05-21T04:01:55.632Z,86.11
2019-05-21T04:03:01.479Z,86.04
2019-05-21T04:04:06.602Z,86.02
2019-05-21T04:05:12.577Z,86.16
2019-05-21T04:06:17.930Z,86.16
2019-05-21T04:07:23.864Z,86.34
2019-05-21T04:08:28.904Z,86.44
2019-05-21T04:09:34.778Z,86.44
2019-05-21T04:10:40.024Z,86.48
2019-05-21T04:11:45.868Z,86.47
2019-05-21T04:13:07.089Z,86.40
2019-05-21T04:14:14.425Z,86.22
2019-05-21T04:15:21.114Z,86.36
2019-05-21T04:16:36.061Z,86.38
2019-05-21T04:17:53.399Z,86.28
2019-05-21T04:19:11.852Z,86.44
2019-05-21T04:20:17.010Z,86.39
2019-05-21T04:21:22.614Z,86.32
2019-05-21T04:22:27.669Z,86.37
2019-05-21T04:23:33.194Z,86.33
2019-05-21T04:24:38.194Z,86.30
2019-05-21T04:25:43.959Z,86.39
2019-05-21T04:26:49.445Z,86.48
2019-05-21T04:27:55.485Z,86.44
2019-05-21T04:29:00.767Z,86.27
2019-05-21T04:30:10.877Z,86.36
2019-05-21T04:31:13.772Z,86.36
2019-05-21T04:32:19.519Z,86.36
2019-05-21T04:33:24.545Z,86.50
2019-05-21T04:34:30.849Z,86.53
2019-05-21T04:35:35.953Z,86.61
2019-05-21T04:36:41.553Z,86.63
2019-05-21T04:37:46.614Z,86.45
2019-05-21T04:38:52.819Z,86.29
2019-05-21T04:39:57.904Z,86.32
2019-05-21T04:41:05.468Z,86.32
2019-05-21T04:42:10.982Z,86.31
2019-05-21T04:43:16.604Z,86.36
2019-05-21T04:44:21.628Z,86.38
2019-05-21T04:45:27.325Z,86.37
2019-05-21T04:46:32.767Z,86.41
2019-05-21T04:47:38.399Z,86.27
2019-05-21T04:48:43.658Z,86.25
2019-05-21T04:49:49.389Z,86.28
2019-05-21T04:50:54.556Z,86.30
2019-05-21T04:52:00.411Z,86.38
2019-05-21T04:53:05.523Z,86.33
2019-05-21T04:54:11.377Z,86.32
2019-05-21T04:55:16.516Z,86.44
2019-05-21T04:56:22.192Z,86.51
2019-05-21T04:57:27.155Z,86.57
2019-05-21T04:58:32.876Z,86.58
2019-05-21T04:59:38.384Z,86.45
2019-05-21T05:00:47.445Z,86.30
2019-05-21T05:01:52.699Z,86.22
2019-05-21T05:02:58.373Z,86.22
2019-05-21T05:04:03.755Z,86.23
2019-05-21T05:05:09.545Z,86.23
2019-05-21T05:06:14.776Z,86.27
2019-05-21T05:07:28.088Z,86.34
2019-05-21T05:08:27.207Z,86.35
2019-05-21T05:09:33.660Z,86.32
2019-05-21T05:10:38.639Z,86.21
2019-05-21T05:11:44.306Z,86.13
2019-05-21T05:12:49.514Z,86.08
2019-05-21T05:13:55.130Z,86.03
2019-05-21T05:15:00.522Z,85.98
2019-05-21T05:16:06.574Z,86.08
2019-05-21T05:17:11.718Z,86.04
2019-05-21T05:18:17.330Z,86.01
2019-05-21T05:19:22.472Z,85.95
2019-05-21T05:20:28.196Z,86.02
2019-05-21T05:21:33.323Z,86.02
2019-05-21T05:22:39.069Z,86.03
2019-05-21T05:23:44.442Z,85.98
2019-05-21T05:24:50.624Z,85.92
2019-05-21T05:25:56.047Z,85.88
2019-05-21T05:27:01.736Z,85.89
2019-05-21T05:28:07.010Z,85.89
2019-05-21T05:29:12.748Z,85.88
2019-05-21T05:30:18.457Z,85.88
2019-05-21T05:31:26.038Z,85.91
2019-05-21T05:32:31.274Z,85.92
2019-05-21T05:33:36.951Z,85.93
2019-05-21T05:34:41.960Z,86.01
2019-05-21T05:35:47.455Z,86.00
2019-05-21T05:36:52.717Z,85.88
2019-05-21T05:37:58.351Z,85.87
2019-05-21T05:39:04.330Z,85.86
2019-05-21T05:40:10.457Z,85.82
2019-05-21T05:41:15.797Z,85.86
2019-05-21T05:42:21.309Z,85.82
2019-05-21T05:43:26.402Z,85.80
2019-05-21T05:44:32.428Z,85.93
2019-05-21T05:45:37.693Z,86.03
2019-05-21T05:46:43.580Z,86.04
2019-05-21T05:47:48.581Z,85.90
2019-05-21T05:49:05.118Z,85.78
2019-05-21T05:50:12.068Z,85.88
2019-05-21T05:51:17.950Z,85.91
2019-05-21T05:52:22.974Z,85.82
2019-05-21T05:53:28.667Z,85.69
2019-05-21T05:54:33.801Z,85.80
2019-05-21T05:55:39.592Z,85.80
2019-05-21T05:56:44.896Z,85.75
2019-05-21T05:57:50.528Z,85.79
2019-05-21T05:58:55.978Z,85.70
2019-05-21T06:00:01.870Z,85.59
2019-05-21T06:01:07.186Z,85.52
2019-05-21T06:02:12.852Z,85.53
2019-05-21T06:03:18.012Z,85.54
2019-05-21T06:04:24.205Z,85.59
2019-05-21T06:05:29.339Z,85.59
2019-05-21T06:06:35.099Z,85.54
2019-05-21T06:07:40.064Z,85.57
2019-05-21T06:08:45.653Z,85.61
2019-05-21T06:09:51.033Z,85.66
2019-05-21T06:10:57.015Z,85.61
2019-05-21T06:12:02.526Z,85.46
2019-05-21T06:13:08.161Z,85.44
2019-05-21T06:14:13.447Z,85.49
2019-05-21T06:15:19.687Z,85.50
2019-05-21T06:16:25.094Z,85.40
2019-05-21T06:17:31.100Z,85.33
2019-05-21T06:18:36.259Z,85.47
2019-05-21T06:19:42.203Z,85.54
2019-05-21T06:20:47.298Z,85.50
2019-05-21T06:21:52.983Z,85.45
2019-05-21T06:22:58.401Z,85.31
2019-05-21T06:24:04.428Z,85.17
2019-05-21T06:25:10.435Z,85.07
2019-05-21T06:26:16.043Z,85.11
2019-05-21T06:27:21.329Z,85.14
2019-05-21T06:28:26.882Z,85.11
2019-05-21T06:29:31.948Z,85.09
2019-05-21T06:30:38.117Z,85.10
2019-05-21T06:31:43.260Z,85.19
2019-05-21T06:32:49.324Z,85.18
2019-05-21T06:33:54.349Z,85.08
2019-05-21T06:35:00.449Z,85.09
2019-05-21T06:36:05.627Z,85.10
2019-05-21T06:37:11.213Z,84.99
2019-05-21T06:38:18.330Z,84.86
2019-05-21T06:39:24.092Z,84.74
2019-05-21T06:40:29.171Z,84.81
2019-05-21T06:41:35.086Z,84.71
2019-05-21T06:42:40.401Z,84.74
2019-05-21T06:43:45.973Z,84.55
2019-05-21T06:44:51.424Z,84.49
2019-05-21T06:45:57.245Z,84.50
2019-05-21T06:47:02.700Z,84.48
2019-05-21T06:48:08.316Z,84.54
2019-05-21T06:49:13.658Z,84.53
2019-05-21T06:50:19.439Z,84.45
2019-05-21T06:51:24.534Z,84.40
2019-05-21T06:52:30.051Z,84.29
2019-05-21T06:53:35.193Z,84.27
2019-05-21T06:54:40.921Z,84.18
2019-05-21T06:55:46.306Z,84.13
2019-05-21T06:56:52.147Z,84.00
2019-05-21T06:57:57.185Z,84.06
2019-05-21T06:59:02.890Z,84.19
2019-05-21T07:00:09.487Z,84.20
2019-05-21T07:01:15.082Z,84.18
2019-05-21T07:02:20.139Z,84.20
2019-05-21T07:03:25.764Z,84.13
2019-05-21T07:04:30.737Z,84.06
2019-05-21T07:05:36.273Z,83.98
2019-05-21T07:06:44.619Z,83.99
2019-05-21T07:07:48.628Z,84.02
2019-05-21T07:08:53.677Z,83.96
2019-05-21T07:09:59.268Z,83.86
2019-05-21T07:11:04.583Z,83.90
2019-05-21T07:12:10.557Z,83.90
2019-05-21T07:13:15.791Z,83.93
2019-05-21T07:14:21.538Z,83.80
2019-05-21T07:15:26.751Z,83.64
2019-05-21T07:16:32.588Z,83.65
2019-05-21T07:17:37.599Z,83.68
2019-05-21T07:18:43.333Z,83.58
2019-05-21T07:19:48.499Z,83.58
2019-05-21T07:20:54.332Z,83.53
2019-05-21T07:22:12.233Z,83.30
2019-05-21T07:23:06.898Z,83.25
2019-05-21T07:24:12.673Z,83.26
2019-05-21T07:25:18.850Z,83.31
2019-05-21T07:26:23.870Z,83.42
2019-05-21T07:27:29.815Z,83.38
2019-05-21T07:28:34.976Z,83.37
2019-05-21T07:29:40.462Z,83.27
2019-05-21T07:30:45.784Z,83.34
2019-05-21T07:31:51.355Z,83.24
2019-05-21T07:32:56.926Z,83.35
2019-05-21T07:34:02.625Z,83.39
2019-05-21T07:35:07.811Z,83.30
2019-05-21T07:36:13.484Z,83.23
2019-05-21T07:37:18.799Z,83.13
2019-05-21T07:38:25.203Z,83.01
2019-05-21T07:39:30.535Z,83.04
2019-05-21T07:40:36.309Z,83.00
2019-05-21T07:41:41.450Z,82.88
2019-05-21T07:42:47.035Z,82.80
2019-05-21T07:43:52.154Z,82.90
2019-05-21T07:44:57.889Z,82.91
2019-05-21T07:46:03.302Z,82.83
2019-05-21T07:47:08.959Z,82.65
2019-05-21T07:48:14.312Z,82.72
2019-05-21T07:49:19.889Z,82.85
2019-05-21T07:50:25.196Z,82.83
2019-05-21T07:51:31.276Z,82.69
2019-05-21T07:52:36.462Z,82.73
2019-05-21T07:53:42.086Z,82.76
2019-05-21T07:54:47.245Z,82.84
2019-05-21T07:55:52.931Z,82.87
2019-05-21T07:56:58.341Z,82.90
2019-05-21T07:58:03.854Z,82.70
2019-05-21T07:59:08.989Z,82.62
2019-05-21T08:00:16.246Z,82.65
2019-05-21T08:01:21.293Z,82.60
2019-05-21T08:02:26.971Z,82.55
2019-05-21T08:03:32.106Z,82.52
2019-05-21T08:04:37.701Z,82.58
2019-05-21T08:05:42.696Z,82.68
2019-05-21T08:06:48.293Z,82.72
2019-05-21T08:07:53.405Z,82.78
2019-05-21T08:09:12.419Z,82.75
2019-05-21T08:10:07.103Z,82.70
2019-05-21T08:11:12.736Z,82.64
2019-05-21T08:12:37.464Z,82.71
2019-05-21T08:13:25.330Z,82.56
2019-05-21T08:14:30.352Z,82.45
2019-05-21T08:15:36.271Z,82.52
2019-05-21T08:16:41.484Z,82.53
2019-05-21T08:17:47.345Z,82.54
2019-05-21T08:18:52.599Z,82.55
2019-05-21T08:20:08.517Z,82.51
2019-05-21T08:21:05.233Z,82.42
2019-05-21T08:22:10.893Z,82.38
2019-05-21T08:23:15.944Z,82.38
2019-05-21T08:24:21.797Z,82.43
2019-05-21T08:25:27.007Z,82.39
2019-05-21T08:26:32.863Z,82.27
2019-05-21T08:27:37.941Z,82.19
2019-05-21T08:28:43.616Z,82.24
2019-05-21T08:29:49.575Z,82.20
2019-05-21T08:30:55.823Z,82.25
2019-05-21T08:32:00.776Z,82.16
2019-05-21T08:33:06.468Z,82.26
2019-05-21T08:34:11.524Z,82.27
2019-05-21T08:35:17.616Z,82.30
2019-05-21T08:36:22.690Z,82.42
2019-05-21T08:37:28.282Z,82.31
2019-05-21T08:38:33.359Z,82.34
2019-05-21T08:39:39.598Z,82.33
2019-05-21T08:40:45.627Z,82.26
2019-05-21T08:41:51.287Z,82.28
2019-05-21T08:42:56.305Z,82.25
2019-05-21T08:44:02.133Z,82.22
2019-05-21T08:45:07.817Z,82.24
2019-05-21T08:46:13.684Z,82.34
2019-05-21T08:47:19.090Z,82.42
2019-05-21T08:48:24.750Z,82.33
2019-05-21T08:49:29.922Z,82.46
2019-05-21T08:50:36.154Z,82.48
2019-05-21T08:51:41.418Z,82.46
2019-05-21T08:52:47.123Z,82.48
2019-05-21T08:53:52.457Z,82.45
2019-05-21T08:54:58.221Z,82.48
2019-05-21T08:56:03.394Z,82.44
2019-05-21T08:57:09.041Z,82.32
2019-05-21T08:58:14.188Z,82.24
2019-05-21T08:59:19.676Z,82.25
2019-05-21T09:00:25.701Z,82.22
2019-05-21T09:01:31.634Z,82.19
2019-05-21T09:02:36.743Z,82.07
2019-05-21T09:03:42.446Z,82.29
2019-05-21T09:04:47.585Z,82.41
2019-05-21T09:05:53.207Z,82.61
2019-05-21T09:06:58.310Z,82.69
2019-05-21T09:08:04.057Z,82.61
2019-05-21T09:09:09.196Z,82.53
2019-05-21T09:10:16.541Z,82.68
2019-05-21T09:11:21.561Z,82.86
2019-05-21T09:12:27.229Z,82.96
2019-05-21T09:13:32.505Z,83.08
2019-05-21T09:14:38.083Z,83.16
2019-05-21T09:15:43.108Z,83.18
2019-05-21T09:16:48.796Z,83.17
2019-05-21T09:17:53.896Z,83.28
2019-05-21T09:18:59.795Z,83.45
2019-05-21T09:20:06.305Z,83.40
2019-05-21T09:21:13.329Z,83.44
2019-05-21T09:22:21.767Z,83.50
2019-05-21T09:23:27.803Z,83.37
2019-05-21T09:24:33.251Z,83.40
2019-05-21T09:25:39.501Z,83.43
2019-05-21T09:26:45.026Z,83.53
2019-05-21T09:27:51.254Z,83.63
2019-05-21T09:28:57.263Z,83.44
2019-05-21T09:30:03.603Z,83.41
2019-05-21T09:31:09.144Z,83.35
2019-05-21T09:32:18.396Z,83.30
2019-05-21T09:33:24.307Z,83.35
2019-05-21T09:34:46.031Z,83.47
2019-05-21T09:35:36.688Z,83.42
2019-05-21T09:36:42.621Z,83.42
2019-05-21T09:37:47.640Z,83.39
2019-05-21T09:38:53.457Z,83.46
2019-05-21T09:39:58.655Z,83.46
2019-05-21T09:41:04.267Z,83.53
2019-05-21T09:42:09.619Z,83.50
2019-05-21T09:43:15.304Z,83.55
2019-05-21T09:44:20.308Z,83.45
2019-05-21T09:45:25.911Z,83.39
2019-05-21T09:46:31.256Z,83.41
2019-05-21T09:47:36.948Z,83.44
2019-05-21T09:48:42.156Z,83.51
2019-05-21T09:49:47.819Z,83.57
2019-05-21T09:50:53.174Z,83.56
2019-05-21T09:51:58.782Z,83.60
2019-05-21T09:53:03.765Z,83.69
2019-05-21T09:54:10.025Z,83.65
2019-05-21T09:55:15.123Z,83.65
2019-05-21T09:56:33.593Z,83.61
2019-05-21T09:57:48.527Z,83.62
2019-05-21T09:58:55.448Z,83.61
2019-05-21T10:00:12.216Z,83.59
2019-05-21T10:01:31.984Z,83.61
2019-05-21T10:02:37.179Z,83.80
2019-05-21T10:03:43.889Z,83.66
2019-05-21T10:04:49.184Z,83.56
2019-05-21T10:05:54.941Z,83.62
2019-05-21T10:07:00.100Z,83.63
2019-05-21T10:08:06.367Z,83.64
2019-05-21T10:09:15.492Z,83.78
2019-05-21T10:10:21.158Z,83.72
2019-05-21T10:11:26.510Z,83.62
2019-05-21T10:12:32.181Z,83.76
2019-05-21T10:13:37.232Z,83.90
2019-05-21T10:14:43.139Z,83.96
2019-05-21T10:15:48.331Z,83.95
2019-05-21T10:16:54.095Z,83.82
2019-05-21T10:17:59.136Z,83.83
2019-05-21T10:19:04.794Z,83.86
2019-05-21T10:20:10.278Z,83.87
2019-05-21T10:21:15.970Z,83.87
2019-05-21T10:22:21.229Z,83.78
2019-05-21T10:23:26.982Z,83.69
2019-05-21T10:24:32.369Z,83.67
2019-05-21T10:25:38.533Z,83.72
2019-05-21T10:26:43.649Z,83.85
2019-05-21T10:27:49.397Z,83.91
2019-05-21T10:28:54.915Z,83.91
2019-05-21T10:30:00.456Z,83.77
2019-05-21T10:31:05.562Z,83.66
2019-05-21T10:32:11.233Z,83.76
2019-05-21T10:33:16.395Z,83.87
2019-05-21T10:34:22.478Z,83.84
2019-05-21T10:35:27.980Z,83.86
2019-05-21T10:36:33.659Z,83.93
2019-05-21T10:37:53.754Z,84.05
2019-05-21T10:38:46.076Z,83.97
2019-05-21T10:39:51.446Z,84.03
2019-05-21T10:40:57.322Z,83.88
2019-05-21T10:42:02.604Z,83.83
2019-05-21T10:43:08.995Z,83.95
2019-05-21T10:44:15.277Z,83.94
2019-05-21T10:45:21.254Z,83.83
2019-05-21T10:46:26.599Z,83.82
2019-05-21T10:47:32.305Z,83.89
2019-05-21T10:48:37.331Z,83.94
2019-05-21T10:49:43.178Z,84.00
2019-05-21T10:50:48.437Z,83.77
2019-05-21T10:51:54.116Z,83.82
2019-05-21T10:52:59.255Z,83.83
2019-05-21T10:54:06.412Z,83.72
2019-05-21T10:55:16.146Z,83.77
2019-05-21T10:56:22.079Z,83.77
2019-05-21T10:57:27.254Z,83.67
2019-05-21T10:58:33.936Z,83.60
2019-05-21T10:59:38.957Z,83.65
2019-05-21T11:00:45.143Z,83.86
2019-05-21T11:02:08.143Z,83.89
2019-05-21T11:03:18.445Z,83.93
2019-05-21T11:04:40.954Z,83.96
2019-05-21T11:05:48.929Z,84.04
2019-05-21T11:06:54.869Z,84.07
2019-05-21T11:08:22.337Z,84.16
2019-05-21T11:09:10.626Z,84.17
2019-05-21T11:10:16.110Z,84.30
2019-05-21T11:11:21.816Z,84.36
2019-05-21T11:12:26.999Z,84.29
2019-05-21T11:13:32.830Z,84.07
2019-05-21T11:14:38.136Z,84.04
2019-05-21T11:15:43.863Z,84.20
2019-05-21T11:16:49.181Z,84.29
2019-05-21T11:18:09.754Z,84.27
2019-05-21T11:19:01.697Z,84.13
2019-05-21T11:20:07.733Z,84.10
2019-05-21T11:21:12.849Z,84.10
2019-05-21T11:22:18.546Z,84.12
2019-05-21T11:23:23.686Z,84.17
2019-05-21T11:24:29.335Z,84.03
2019-05-21T11:25:34.565Z,84.02
2019-05-21T11:26:40.182Z,84.13
2019-05-21T11:27:45.531Z,84.25
2019-05-21T11:28:51.585Z,84.34
2019-05-21T11:29:56.575Z,84.38
2019-05-21T11:31:02.188Z,84.29
2019-05-21T11:32:09.830Z,84.30
2019-05-21T11:33:15.746Z,84.13
2019-05-21T11:34:20.787Z,84.11
2019-05-21T11:35:26.628Z,84.09
2019-05-21T11:36:31.827Z,84.13
2019-05-21T11:37:37.706Z,84.22
2019-05-21T11:38:42.873Z,84.17
2019-05-21T11:39:48.624Z,84.12
2019-05-21T11:40:53.653Z,84.06
2019-05-21T11:41:59.219Z,84.07
2019-05-21T11:43:04.411Z,83.91
2019-05-21T11:44:10.131Z,83.85
2019-05-21T11:45:31.186Z,83.87
2019-05-21T11:46:22.989Z,83.81
2019-05-21T11:47:28.108Z,83.74
2019-05-21T11:48:33.807Z,83.70
2019-05-21T11:49:39.258Z,83.62
2019-05-21T11:50:45.099Z,83.58
2019-05-21T11:51:50.437Z,83.46
2019-05-21T11:52:56.399Z,83.44
2019-05-21T11:54:01.500Z,83.45
2019-05-21T11:55:07.277Z,83.35
2019-05-21T11:56:12.326Z,83.43
2019-05-21T11:57:17.991Z,83.37
2019-05-21T11:58:23.568Z,83.43
2019-05-21T11:59:29.393Z,83.56
2019-05-21T12:00:34.932Z,83.63
2019-05-21T12:01:40.596Z,83.62
2019-05-21T12:02:45.623Z,83.53
2019-05-21T12:03:51.578Z,83.54
2019-05-21T12:04:56.948Z,83.45
2019-05-21T12:06:02.483Z,83.42
2019-05-21T12:07:07.721Z,83.35
2019-05-21T12:08:13.610Z,83.37
2019-05-21T12:09:18.694Z,83.40
2019-05-21T12:10:24.313Z,83.37
2019-05-21T12:11:29.393Z,83.32
2019-05-21T12:12:35.213Z,83.21
2019-05-21T12:13:40.292Z,83.24
2019-05-21T12:14:45.888Z,83.22
2019-05-21T12:15:51.233Z,83.23
2019-05-21T12:16:57.011Z,83.13
2019-05-21T12:18:02.303Z,82.84
2019-05-21T12:19:08.737Z,82.65
2019-05-21T12:20:14.491Z,82.61
2019-05-21T12:21:20.291Z,82.75
2019-05-21T12:22:25.233Z,82.83
2019-05-21T12:23:31.276Z,82.93
2019-05-21T12:24:36.914Z,82.95
2019-05-21T12:25:42.557Z,82.94
2019-05-21T12:26:47.681Z,82.86
2019-05-21T12:27:53.719Z,82.74
2019-05-21T12:28:58.849Z,82.79
2019-05-21T12:30:04.818Z,82.75
2019-05-21T12:31:09.895Z,82.67
2019-05-21T12:32:15.436Z,82.72
2019-05-21T12:33:20.403Z,82.75
2019-05-21T12:34:26.002Z,82.74
2019-05-21T12:35:31.202Z,82.79
2019-05-21T12:36:36.905Z,82.76
2019-05-21T12:37:42.221Z,82.72
2019-05-21T12:38:47.880Z,82.68
2019-05-21T12:39:53.246Z,82.74
2019-05-21T12:40:58.990Z,82.69
2019-05-21T12:42:04.550Z,82.72
2019-05-21T12:43:10.240Z,82.69
2019-05-21T12:44:15.376Z,82.67
2019-05-21T12:45:21.086Z,82.59
2019-05-21T12:46:26.159Z,82.43
2019-05-21T12:47:31.819Z,82.42
2019-05-21T12:48:36.855Z,82.44
2019-05-21T12:49:42.517Z,82.48
2019-05-21T12:50:47.942Z,82.48
2019-05-21T12:51:53.683Z,82.42
2019-05-21T12:52:58.792Z,82.40
2019-05-21T12:54:04.853Z,82.26
2019-05-21T12:55:10.492Z,82.34
2019-05-21T12:56:16.344Z,82.48
2019-05-21T12:57:21.590Z,82.46
2019-05-21T12:58:27.516Z,82.42
2019-05-21T12:59:32.654Z,82.32
2019-05-21T13:00:40.208Z,82.26
2019-05-21T13:01:45.337Z,82.31
2019-05-21T13:02:50.948Z,82.29
2019-05-21T13:03:56.055Z,82.33
2019-05-21T13:05:01.577Z,82.37
2019-05-21T13:06:06.741Z,82.46
2019-05-21T13:07:12.582Z,82.44
2019-05-21T13:08:17.873Z,82.30
2019-05-21T13:09:32.297Z,82.37
2019-05-21T13:10:30.318Z,82.38
2019-05-21T13:11:36.313Z,82.33
2019-05-21T13:12:41.638Z,82.28
2019-05-21T13:13:47.326Z,82.34
2019-05-21T13:14:52.468Z,82.31
2019-05-21T13:15:58.228Z,82.25
2019-05-21T13:17:03.580Z,82.15
2019-05-21T13:18:09.324Z,82.17
2019-05-21T13:19:15.337Z,82.17
2019-05-21T13:20:22.281Z,82.19
2019-05-21T13:21:27.317Z,82.19
2019-05-21T13:22:33.045Z,82.11
2019-05-21T13:23:38.050Z,82.14
2019-05-21T13:24:43.807Z,82.13
2019-05-21T13:25:48.894Z,82.11
2019-05-21T13:26:54.844Z,82.07
2019-05-21T13:27:59.879Z,81.94
2019-05-21T13:29:05.831Z,81.95
2019-05-21T13:30:11.383Z,82.05
2019-05-21T13:31:17.238Z,81.98
2019-05-21T13:32:22.621Z,81.94
2019-05-21T13:33:28.786Z,81.88
2019-05-21T13:34:34.098Z,81.90
2019-05-21T13:35:39.767Z,81.87
2019-05-21T13:36:45.024Z,81.73
2019-05-21T13:37:50.996Z,81.69
2019-05-21T13:38:56.046Z,81.71
2019-05-21T13:40:01.776Z,81.71
2019-05-21T13:41:06.853Z,81.72
2019-05-21T13:42:12.464Z,81.63
2019-05-21T13:43:21.006Z,81.56
2019-05-21T13:44:25.007Z,81.56
2019-05-21T13:45:30.108Z,81.41
2019-05-21T13:46:35.949Z,81.41
2019-05-21T13:47:41.238Z,81.40
2019-05-21T13:48:47.330Z,81.39
2019-05-21T13:49:52.679Z,81.37
2019-05-21T13:50:58.273Z,81.41
2019-05-21T13:52:03.426Z,81.42
2019-05-21T13:53:09.534Z,81.24
2019-05-21T13:54:14.603Z,81.19
2019-05-21T13:55:20.450Z,81.20
2019-05-21T13:56:25.544Z,81.27
2019-05-21T13:57:31.476Z,81.28
2019-05-21T13:58:36.890Z,81.19
2019-05-21T13:59:42.655Z,81.10
2019-05-21T14:00:50.238Z,80.96
2019-05-21T14:01:55.790Z,81.05
2019-05-21T14:03:00.886Z,81.12
2019-05-21T14:04:06.650Z,81.14
2019-05-21T14:05:11.865Z,81.03
2019-05-21T14:06:20.173Z,80.92
2019-05-21T14:07:24.397Z,80.89
2019-05-21T14:08:30.085Z,80.90
2019-05-21T14:09:35.127Z,81.02
2019-05-21T14:10:41.236Z,81.02
2019-05-21T14:11:46.420Z,81.00
2019-05-21T14:12:52.050Z,80.92